| time (UTC) | temp F | wind direction | speed MPH | gust MPH | rain 1hr in | rain 24hr in | rain mn in | humidity % | barometer mb |
| 20260507103910 | 41 | 315 | 7.0 | 9.0 | 0.00 | 0.01 | 0.01 | 98 | 1022.0 |
| 20260507103407 | 41 | 315 | 4.0 | 5.0 | 0.00 | 0.01 | 0.01 | 98 | 1021.9 |
| 20260507102903 | 41 | 314 | 12.0 | 17.0 | 0.00 | 0.01 | 0.01 | 98 | 1021.7 |
| 20260507102400 | 41 | 312 | 7.0 | 9.0 | 0.00 | 0.01 | 0.01 | 98 | 1021.9 |
| 20260507101857 | 41 | 313 | 5.0 | 7.0 | 0.00 | 0.01 | 0.01 | 98 | 1021.9 |
| 20260507101356 | 41 | 304 | 8.0 | 9.0 | 0.00 | 0.01 | 0.01 | 98 | 1021.7 |
| 20260507100854 | 41 | 317 | 6.0 | 7.0 | 0.00 | 0.01 | 0.01 | 98 | 1021.9 |
| 20260507100352 | 41 | 319 | 5.0 | 5.0 | 0.00 | 0.01 | 0.01 | 98 | 1021.8 |
| 20260507095849 | 41 | 311 | 10.0 | 10.0 | 0.00 | 0.01 | 0.01 | 98 | 1021.7 |
| 20260507095346 | 41 | 334 | 4.0 | 5.0 | 0.00 | 0.01 | 0.01 | 98 | 1021.7 |
| 20260507094843 | 40 | 341 | 3.0 | 3.0 | 0.00 | 0.01 | 0.01 | 98 | 1021.8 |
| 20260507094339 | 40 | 343 | 5.0 | 5.0 | 0.00 | 0.01 | 0.01 | 98 | 1021.8 |
| 20260507093837 | 39 | 347 | 4.0 | 5.0 | 0.00 | 0.01 | 0.01 | 98 | 1021.8 |
| 20260507093335 | 39 | 348 | 5.0 | 5.0 | 0.00 | 0.01 | 0.01 | 97 | 1021.9 |
| 20260507092833 | 39 | 349 | 3.0 | 3.0 | 0.00 | 0.01 | 0.01 | 97 | 1021.6 |
| 20260507092329 | 40 | 349 | 2.0 | 3.0 | 0.00 | 0.01 | 0.01 | 97 | 1021.7 |
| 20260507091825 | 40 | 349 | 4.0 | 5.0 | 0.00 | 0.01 | 0.01 | 97 | 1022.0 |
| 20260507091322 | 40 | 351 | 4.0 | 5.0 | 0.00 | 0.01 | 0.01 | 97 | 1021.8 |
| 20260507090817 | 40 | 351 | 2.0 | 2.0 | 0.00 | 0.01 | 0.01 | 97 | 1021.8 |
| 20260507090314 | 40 | 352 | 4.0 | 5.0 | 0.00 | 0.01 | 0.01 | 97 | 1021.9 |
| 20260507085811 | 41 | 352 | 3.0 | 3.0 | 0.00 | 0.01 | 0.01 | 97 | 1022.0 |
| 20260507085308 | 41 | 353 | 3.0 | 3.0 | 0.00 | 0.01 | 0.01 | 97 | 1021.7 |
| 20260507084805 | 41 | 354 | 2.0 | 3.0 | 0.00 | 0.01 | 0.01 | 96 | 1021.6 |
| 20260507084301 | 41 | 354 | 4.0 | 5.0 | 0.00 | 0.01 | 0.01 | 96 | 1021.5 |
| 20260507083759 | 41 | 354 | 5.0 | 7.0 | 0.00 | 0.01 | 0.01 | 96 | 1021.7 |
| 20260507083255 | 42 | 357 | 8.0 | 9.0 | 0.00 | 0.01 | 0.01 | 96 | 1021.7 |
| 20260507082751 | 42 | 358 | 6.0 | 7.0 | 0.00 | 0.01 | 0.01 | 96 | 1021.8 |
| 20260507082247 | 42 | 357 | 5.0 | 7.0 | 0.00 | 0.01 | 0.01 | 96 | 1021.7 |
| 20260507081744 | 42 | 358 | 7.0 | 9.0 | 0.00 | 0.01 | 0.01 | 96 | 1022.0 |
| 20260507081240 | 42 | 358 | 2.0 | 2.0 | 0.00 | 0.01 | 0.01 | 96 | 1021.7 |
| 20260507080737 | 42 | 359 | 0.0 | 0.0 | 0.00 | 0.01 | 0.01 | 96 | 1021.8 |
| 20260507080233 | 42 | 359 | 0.0 | 0.0 | 0.00 | 0.01 | 0.01 | 96 | 1022.0 |
| 20260507075729 | 42 | 359 | 0.0 | 0.0 | 0.00 | 0.01 | 0.01 | 96 | 1021.9 |
| 20260507075225 | 42 | 359 | 2.0 | 3.0 | 0.00 | 0.01 | 0.01 | 96 | 1021.7 |
| 20260507074722 | 41 | 359 | 2.0 | 2.0 | 0.00 | 0.01 | 0.01 | 95 | 1021.9 |
| 20260507074220 | 41 | 359 | 0.0 | 0.0 | 0.00 | 0.01 | 0.01 | 95 | 1022.1 |
| 20260507073716 | 42 | 359 | 0.0 | 0.0 | 0.00 | 0.01 | 0.01 | 95 | 1022.1 |
| 20260507073213 | 42 | 359 | 0.0 | 0.0 | 0.00 | 0.01 | 0.01 | 95 | 1022.2 |
| 20260507072711 | 42 | 359 | 2.0 | 2.0 | 0.00 | 0.01 | 0.01 | 95 | 1022.3 |
| 20260507072208 | 42 | 1 | 6.0 | 7.0 | 0.00 | 0.01 | 0.01 | 95 | 1022.3 |
| 20260507071705 | 42 | 358 | 4.0 | 5.0 | 0.00 | 0.01 | 0.01 | 95 | 1022.6 |
| 20260507071201 | 42 | 357 | 9.0 | 12.0 | 0.00 | 0.01 | 0.01 | 95 | 1022.5 |
| 20260507070659 | 42 | 352 | 8.0 | 10.0 | 0.00 | 0.01 | 0.01 | 94 | 1022.8 |
| 20260507070155 | 42 | 351 | 9.0 | 10.0 | 0.00 | 0.01 | 0.01 | 94 | 1022.9 |
| 20260507065652 | 42 | 347 | 10.0 | 14.0 | 0.00 | 0.01 | 0.01 | 94 | 1023.6 |
| 20260507065149 | 42 | 353 | 9.0 | 12.0 | 0.00 | 0.01 | 0.01 | 93 | 1023.1 |
| 20260507064646 | 42 | 348 | 12.0 | 14.0 | 0.00 | 0.01 | 0.01 | 93 | 1022.8 |
| 20260507064144 | 42 | 346 | 16.0 | 19.0 | 0.00 | 0.01 | 0.01 | 93 | 1022.9 |
| 20260507063641 | 42 | 8 | 11.0 | 14.0 | 0.00 | 0.01 | 0.01 | 92 | 1022.8 |
| 20260507063133 | 42 | 15 | 10.0 | 12.0 | 0.00 | 0.01 | 0.01 | 91 | 1023.1 |
| 20260507062630 | 42 | 359 | 9.0 | 10.0 | 0.00 | 0.01 | 0.01 | 91 | 1022.6 |
| 20260507062127 | 42 | 2 | 7.0 | 9.0 | 0.00 | 0.01 | 0.01 | 91 | 1022.5 |
| 20260507061625 | 43 | 14 | 6.0 | 7.0 | 0.00 | 0.01 | 0.01 | 90 | 1022.5 |
| 20260507061123 | 43 | 15 | 9.0 | 10.0 | 0.00 | 0.01 | 0.01 | 89 | 1022.3 |
| 20260507060621 | 43 | 25 | 8.0 | 10.0 | 0.00 | 0.01 | 0.01 | 88 | 1022.2 |
| 20260507060117 | 43 | 4 | 4.0 | 5.0 | 0.00 | 0.01 | 0.01 | 88 | 1022.1 |
| 20260507055612 | 43 | 15 | 2.0 | 3.0 | 0.00 | 0.01 | 0.01 | 86 | 1022.0 |
| 20260507055109 | 43 | 14 | 7.0 | 10.0 | 0.00 | 0.01 | 0.01 | 86 | 1022.3 |
| 20260507054604 | 43 | 12 | 7.0 | 9.0 | 0.00 | 0.01 | 0.01 | 85 | 1022.1 |
| 20260507054102 | 43 | 0 | 6.0 | 9.0 | 0.00 | 0.01 | 0.01 | 86 | 1022.1 |
| 20260507053600 | 43 | 10 | 8.0 | 10.0 | 0.00 | 0.01 | 0.01 | 85 | 1022.2 |
| 20260507053058 | 44 | 31 | 8.0 | 10.0 | 0.05 | 0.01 | 0.01 | 85 | 1021.9 |
| 20260507052556 | 44 | 30 | 6.0 | 7.0 | 0.05 | 0.01 | 0.01 | 83 | 1022.2 |
| 20260507052052 | 44 | 12 | 9.0 | 10.0 | 0.00 | 0.00 | 0.00 | 79 | 1022.1 |
| 20260507051549 | 45 | 15 | 13.0 | 15.0 | 0.00 | 0.00 | 0.00 | 74 | 1022.3 |
| 20260507051046 | 46 | 24 | 11.0 | 15.0 | 0.00 | 0.00 | 0.00 | 69 | 1022.6 |
| 20260507050543 | 46 | 19 | 10.0 | 12.0 | 0.00 | 0.00 | 0.00 | 66 | 1022.7 |
| 20260507050039 | 46 | 18 | 11.0 | 14.0 | 0.00 | 0.00 | 0.00 | 66 | 1022.3 |
| 20260507045536 | 46 | 19 | 6.0 | 7.0 | 0.00 | 0.00 | 0.00 | 66 | 1022.3 |
| 20260507045033 | 46 | 7 | 2.0 | 3.0 | 0.00 | 0.00 | 0.00 | 66 | 1022.1 |
| 20260507044530 | 46 | 355 | 3.0 | 5.0 | 0.00 | 0.00 | 0.00 | 66 | 1022.0 |
| 20260507044027 | 46 | 6 | 5.0 | 7.0 | 0.00 | 0.00 | 0.00 | 66 | 1021.8 |
| 20260507043523 | 47 | 11 | 7.0 | 14.0 | 0.00 | 0.00 | 0.00 | 65 | 1022.0 |
| 20260507043020 | 47 | 347 | 4.0 | 5.0 | 0.00 | 0.00 | 0.00 | 64 | 1022.0 |
| 20260507042516 | 47 | 12 | 4.0 | 5.0 | 0.00 | 0.00 | 0.00 | 63 | 1022.2 |
| 20260507042012 | 48 | 4 | 11.0 | 14.0 | 0.00 | 0.00 | 0.00 | 63 | 1022.3 |
| 20260507041509 | 48 | 19 | 13.0 | 19.0 | 0.00 | 0.00 | 0.00 | 63 | 1022.1 |
| 20260507041006 | 48 | 351 | 4.0 | 7.0 | 0.00 | 0.00 | 0.00 | 62 | 1022.0 |
| 20260507040502 | 48 | 17 | 8.0 | 15.0 | 0.00 | 0.00 | 0.00 | 62 | 1022.0 |
| 20260507035957 | 48 | 20 | 9.0 | 10.0 | 0.00 | 0.00 | 0.00 | 61 | 1022.1 |
| 20260507035454 | 48 | 33 | 8.0 | 12.0 | 0.00 | 0.00 | 0.00 | 61 | 1022.0 |
| 20260507034951 | 48 | 42 | 8.0 | 10.0 | 0.00 | 0.00 | 0.00 | 61 | 1021.9 |
| 20260507034448 | 48 | 55 | 6.0 | 9.0 | 0.00 | 0.00 | 0.00 | 61 | 1021.8 |
| 20260507033946 | 48 | 2 | 9.0 | 12.0 | 0.00 | 0.00 | 0.00 | 61 | 1021.8 |
| 20260507033443 | 48 | 17 | 15.0 | 19.0 | 0.00 | 0.00 | 0.00 | 61 | 1021.8 |
| 20260507032940 | 49 | 44 | 13.0 | 21.0 | 0.00 | 0.00 | 0.00 | 60 | 1021.7 |
| 20260507032437 | 49 | 7 | 10.0 | 15.0 | 0.00 | 0.00 | 0.00 | 60 | 1021.6 |
| 20260507031933 | 49 | 21 | 9.0 | 14.0 | 0.00 | 0.00 | 0.00 | 60 | 1021.5 |
| 20260507031430 | 49 | 55 | 7.0 | 10.0 | 0.00 | 0.00 | 0.00 | 60 | 1021.5 |
| 20260507030927 | 49 | 40 | 11.0 | 14.0 | 0.00 | 0.00 | 0.00 | 59 | 1021.3 |
| 20260507030424 | 50 | 33 | 17.0 | 22.0 | 0.00 | 0.00 | 0.00 | 59 | 1021.1 |
| 20260507025921 | 50 | 35 | 16.0 | 21.0 | 0.00 | 0.00 | 0.00 | 60 | 1021.2 |
| 20260507025418 | 50 | 8 | 10.0 | 15.0 | 0.00 | 0.00 | 0.00 | 60 | 1021.0 |
| 20260507024916 | 50 | 37 | 11.0 | 17.0 | 0.00 | 0.00 | 0.00 | 59 | 1020.9 |
| 20260507024413 | 50 | 33 | 15.0 | 21.0 | 0.00 | 0.00 | 0.00 | 59 | 1020.9 |
| 20260507023908 | 50 | 22 | 13.0 | 17.0 | 0.00 | 0.00 | 0.00 | 59 | 1020.7 |
| 20260507023406 | 51 | 14 | 10.0 | 12.0 | 0.00 | 0.00 | 0.00 | 58 | 1020.8 |
| 20260507022903 | 51 | 356 | 15.0 | 21.0 | 0.00 | 0.00 | 0.00 | 58 | 1020.8 |
| 20260507022400 | 51 | 21 | 17.0 | 22.0 | 0.00 | 0.00 | 0.00 | 58 | 1020.3 |
| 20260507021856 | 51 | 18 | 7.0 | 12.0 | 0.00 | 0.00 | 0.00 | 58 | 1020.0 |
| 20260507021351 | 51 | 94 | 4.0 | 7.0 | 0.00 | 0.00 | 0.00 | 58 | 1019.8 |
| 20260507020849 | 51 | 13 | 10.0 | 17.0 | 0.00 | 0.00 | 0.00 | 57 | 1019.8 |
| 20260507020346 | 52 | 7 | 10.0 | 12.0 | 0.00 | 0.00 | 0.00 | 57 | 1019.3 |
| 20260507015842 | 52 | 350 | 8.0 | 12.0 | 0.00 | 0.00 | 0.00 | 57 | 1019.2 |
| 20260507015341 | 52 | 9 | 10.0 | 15.0 | 0.00 | 0.00 | 0.00 | 57 | 1019.0 |
| 20260507014837 | 52 | 83 | 7.0 | 12.0 | 0.00 | 0.00 | 0.00 | 56 | 1019.0 |
| 20260507014334 | 52 | 9 | 9.0 | 15.0 | 0.00 | 0.00 | 0.00 | 56 | 1018.8 |
| 20260507013830 | 53 | 45 | 9.0 | 12.0 | 0.00 | 0.00 | 0.00 | 56 | 1018.7 |
| 20260507013327 | 53 | 27 | 11.0 | 15.0 | 0.00 | 0.00 | 0.00 | 55 | 1018.5 |
| 20260507012825 | 53 | 3 | 12.0 | 17.0 | 0.00 | 0.00 | 0.00 | 54 | 1018.1 |
| 20260507012320 | 54 | 33 | 5.0 | 7.0 | 0.00 | 0.00 | 0.00 | 54 | 1018.1 |
| 20260507011818 | 54 | 81 | 6.0 | 12.0 | 0.00 | 0.00 | 0.00 | 54 | 1018.1 |
| 20260507011314 | 54 | 10 | 2.0 | 3.0 | 0.00 | 0.00 | 0.00 | 54 | 1018.0 |
| 20260507010814 | 54 | 25 | 4.0 | 5.0 | 0.00 | 0.00 | 0.00 | 54 | 1017.6 |
| 20260507010310 | 54 | 80 | 5.0 | 7.0 | 0.00 | 0.00 | 0.00 | 54 | 1017.4 |
| 20260507005807 | 55 | 0 | 6.0 | 9.0 | 0.00 | 0.00 | 0.00 | 53 | 1017.4 |
| 20260507005305 | 56 | 37 | 8.0 | 14.0 | 0.00 | 0.00 | 0.00 | 52 | 1017.5 |
| 20260507004800 | 56 | 74 | 7.0 | 10.0 | 0.00 | 0.00 | 0.00 | 52 | 1017.4 |
| 20260507004258 | 56 | 49 | 2.0 | 3.0 | 0.00 | 0.00 | 0.00 | 51 | 1017.2 |
| 20260507003754 | 55 | 101 | 3.0 | 5.0 | 0.00 | 0.00 | 0.00 | 52 | 1017.0 |
| 20260507003249 | 55 | 34 | 6.0 | 10.0 | 0.00 | 0.00 | 0.00 | 53 | 1017.2 |
| 20260507002746 | 55 | 65 | 6.0 | 10.0 | 0.00 | 0.00 | 0.00 | 52 | 1017.2 |
| 20260507002242 | 57 | 41 | 1.0 | 2.0 | 0.00 | 0.00 | 0.00 | 51 | 1017.1 |
| 20260507001739 | 57 | 7 | 5.0 | 7.0 | 0.00 | 0.00 | 0.00 | 50 | 1017.2 |
| 20260507001236 | 57 | 82 | 3.0 | 5.0 | 0.00 | 0.00 | 0.00 | 50 | 1017.1 |
| 20260507000732 | 56 | 60 | 2.0 | 3.0 | 0.00 | 0.00 | 0.00 | 51 | 1016.9 |
| 20260507000228 | 55 | 70 | 1.0 | 2.0 | 0.00 | 0.00 | 0.00 | 54 | 1017.0 |
| 20260506235725 | 55 | 102 | 4.0 | 5.0 | 0.00 | 0.00 | 0.00 | 53 | 1016.9 |
| 20260506235221 | 56 | 61 | 3.0 | 7.0 | 0.00 | 0.00 | 0.00 | 53 | 1016.9 |
| 20260506234718 | 57 | 2 | 2.0 | 3.0 | 0.00 | 0.00 | 0.00 | 51 | 1016.7 |
| 20260506234215 | 57 | 103 | 6.0 | 9.0 | 0.00 | 0.00 | 0.00 | 50 | 1016.7 |
| 20260506233713 | 57 | 99 | 8.0 | 10.0 | 0.00 | 0.00 | 0.00 | 52 | 1016.5 |
| 20260506233209 | 56 | 7 | 2.0 | 2.0 | 0.00 | 0.00 | 0.00 | 53 | 1016.9 |
| 20260506232706 | 55 | 53 | 2.0 | 3.0 | 0.00 | 0.00 | 0.00 | 54 | 1016.7 |
| 20260506232200 | 56 | 106 | 12.0 | 15.0 | 0.00 | 0.00 | 0.00 | 52 | 1016.9 |
| 20260506231658 | 58 | 76 | 12.0 | 19.0 | 0.00 | 0.00 | 0.00 | 49 | 1016.7 |
| 20260506231156 | 59 | 94 | 7.0 | 10.0 | 0.00 | 0.00 | 0.00 | 49 | 1016.7 |
| 20260506230652 | 58 | 94 | 6.0 | 12.0 | 0.00 | 0.00 | 0.00 | 50 | 1016.9 |
| 20260506230150 | 58 | 138 | 5.0 | 9.0 | 0.00 | 0.00 | 0.00 | 50 | 1016.7 |
| 20260506225646 | 58 | 30 | 4.0 | 5.0 | 0.00 | 0.00 | 0.00 | 50 | 1016.9 |
| 20260506225143 | 57 | 100 | 4.0 | 5.0 | 0.00 | 0.00 | 0.00 | 50 | 1017.1 |
| 20260506224639 | 58 | 72 | 4.0 | 7.0 | 0.00 | 0.00 | 0.00 | 50 | 1016.8 |
| 20260506224136 | 57 | 12 | 3.0 | 3.0 | 0.00 | 0.00 | 0.00 | 52 | 1016.6 |
| 20260506223632 | 55 | 2 | 2.0 | 3.0 | 0.00 | 0.00 | 0.00 | 54 | 1017.0 |
| 20260506223128 | 55 | 78 | 4.0 | 5.0 | 0.00 | 0.00 | 0.00 | 55 | 1016.9 |
| 20260506222626 | 55 | 174 | 5.0 | 7.0 | 0.00 | 0.00 | 0.00 | 54 | 1017.1 |
| 20260506222122 | 57 | 41 | 7.0 | 9.0 | 0.00 | 0.00 | 0.00 | 52 | 1017.0 |
| 20260506221620 | 58 | 331 | 1.0 | 3.0 | 0.00 | 0.00 | 0.00 | 50 | 1017.1 |
| 20260506221118 | 58 | 4 | 6.0 | 9.0 | 0.00 | 0.00 | 0.00 | 51 | 1017.2 |
| 20260506220614 | 56 | 25 | 1.0 | 2.0 | 0.00 | 0.00 | 0.00 | 53 | 1017.2 |
| 20260506220109 | 54 | 104 | 6.0 | 7.0 | 0.00 | 0.00 | 0.00 | 56 | 1017.5 |
| 20260506215606 | 54 | 92 | 11.0 | 14.0 | 0.00 | 0.00 | 0.00 | 56 | 1017.4 |
| 20260506215101 | 54 | 106 | 9.0 | 14.0 | 0.00 | 0.00 | 0.00 | 55 | 1017.1 |
| 20260506214559 | 55 | 82 | 12.0 | 14.0 | 0.00 | 0.00 | 0.00 | 55 | 1017.2 |
| 20260506214056 | 56 | 49 | 6.0 | 9.0 | 0.00 | 0.00 | 0.00 | 54 | 1017.4 |
| 20260506213554 | 58 | 9 | 3.0 | 3.0 | 0.00 | 0.00 | 0.00 | 51 | 1017.5 |
| 20260506213051 | 57 | 69 | 3.0 | 7.0 | 0.00 | 0.00 | 0.00 | 53 | 1017.5 |
| 20260506212547 | 56 | 344 | 1.0 | 2.0 | 0.00 | 0.00 | 0.00 | 54 | 1017.0 |
| 20260506212042 | 54 | 16 | 0.0 | 0.0 | 0.00 | 0.00 | 0.00 | 57 | 1017.4 |
| 20260506211539 | 54 | 108 | 5.0 | 7.0 | 0.00 | 0.00 | 0.00 | 56 | 1017.6 |
| 20260506211036 | 54 | 157 | 9.0 | 12.0 | 0.00 | 0.00 | 0.00 | 57 | 1017.4 |
| 20260506210532 | 56 | 136 | 4.0 | 5.0 | 0.00 | 0.00 | 0.00 | 54 | 1017.5 |
| 20260506210029 | 56 | 27 | 5.0 | 7.0 | 0.00 | 0.00 | 0.00 | 54 | 1017.5 |
| 20260506205526 | 55 | 322 | 2.0 | 3.0 | 0.00 | 0.00 | 0.00 | 56 | 1017.4 |
| 20260506205021 | 54 | 354 | 10.0 | 10.0 | 0.00 | 0.00 | 0.00 | 56 | 1017.6 |
| 20260506204519 | 53 | 102 | 4.0 | 7.0 | 0.00 | 0.00 | 0.00 | 59 | 1017.9 |
| 20260506204016 | 54 | 90 | 9.0 | 12.0 | 0.00 | 0.00 | 0.00 | 59 | 1017.7 |
| 20260506203514 | 54 | 129 | 7.0 | 12.0 | 0.00 | 0.00 | 0.00 | 58 | 1017.8 |
| 20260506203010 | 55 | 119 | 9.0 | 10.0 | 0.00 | 0.00 | 0.00 | 55 | 1017.6 |
| 20260506202508 | 53 | 58 | 2.0 | 3.0 | 0.00 | 0.00 | 0.00 | 58 | 1017.7 |
| 20260506202004 | 53 | 93 | 5.0 | 7.0 | 0.00 | 0.00 | 0.00 | 59 | 1017.9 |
| 20260506201502 | 52 | 171 | 8.0 | 10.0 | 0.00 | 0.00 | 0.00 | 62 | 1017.9 |
| 20260506200958 | 51 | 80 | 11.0 | 14.0 | 0.00 | 0.00 | 0.00 | 63 | 1017.9 |
| 20260506200455 | 55 | 146 | 7.0 | 9.0 | 0.00 | 0.00 | 0.00 | 59 | 1018.2 |
| 20260506195951 | 54 | 11 | 8.0 | 10.0 | 0.00 | 0.00 | 0.00 | 59 | 1018.0 |
| 20260506195448 | 53 | 104 | 5.0 | 5.0 | 0.00 | 0.00 | 0.00 | 60 | 1018.1 |
| 20260506194945 | 50 | 336 | 2.0 | 3.0 | 0.00 | 0.00 | 0.00 | 65 | 1018.2 |
| 20260506194442 | 50 | 42 | 9.0 | 12.0 | 0.00 | 0.00 | 0.00 | 66 | 1018.0 |
| 20260506193939 | 52 | 30 | 2.0 | 3.0 | 0.00 | 0.00 | 0.00 | 63 | 1017.9 |
| 20260506193436 | 50 | 118 | 6.0 | 9.0 | 0.00 | 0.00 | 0.00 | 65 | 1018.4 |
| 20260506192932 | 50 | 81 | 6.0 | 9.0 | 0.00 | 0.00 | 0.00 | 66 | 1018.1 |
| 20260506192429 | 49 | 104 | 7.0 | 10.0 | 0.00 | 0.00 | 0.00 | 67 | 1018.1 |
| 20260506191926 | 50 | 65 | 5.0 | 12.0 | 0.00 | 0.00 | 0.00 | 67 | 1018.1 |
| 20260506191422 | 51 | 19 | 2.0 | 3.0 | 0.00 | 0.00 | 0.00 | 64 | 1017.9 |
| 20260506190919 | 50 | 88 | 8.0 | 12.0 | 0.00 | 0.00 | 0.00 | 66 | 1018.2 |
| 20260506190416 | 50 | 124 | 4.0 | 5.0 | 0.00 | 0.00 | 0.00 | 67 | 1018.1 |
| 20260506185913 | 49 | 23 | 3.0 | 5.0 | 0.00 | 0.00 | 0.00 | 68 | 1018.0 |
| 20260506185410 | 49 | 130 | 8.0 | 10.0 | 0.00 | 0.00 | 0.00 | 68 | 1018.4 |
| 20260506184907 | 50 | 64 | 4.0 | 5.0 | 0.00 | 0.00 | 0.00 | 68 | 1018.4 |
| 20260506184404 | 48 | 53 | 4.0 | 5.0 | 0.00 | 0.00 | 0.00 | 69 | 1018.6 |
| 20260506183901 | 48 | 11 | 5.0 | 7.0 | 0.00 | 0.00 | 0.00 | 70 | 1018.4 |
| 20260506183356 | 48 | 33 | 9.0 | 14.0 | 0.00 | 0.00 | 0.00 | 70 | 1018.6 |
| 20260506182854 | 48 | 51 | 7.0 | 9.0 | 0.00 | 0.00 | 0.00 | 70 | 1018.6 |
| 20260506182351 | 48 | 101 | 7.0 | 12.0 | 0.00 | 0.00 | 0.00 | 71 | 1018.8 |
| 20260506181848 | 47 | 102 | 7.0 | 9.0 | 0.00 | 0.00 | 0.00 | 71 | 1018.7 |
| 20260506181346 | 48 | 74 | 3.0 | 7.0 | 0.00 | 0.00 | 0.00 | 71 | 1018.8 |
| 20260506180843 | 48 | 139 | 6.0 | 7.0 | 0.00 | 0.00 | 0.00 | 70 | 1018.8 |
| 20260506180339 | 48 | 20 | 4.0 | 5.0 | 0.00 | 0.00 | 0.00 | 70 | 1018.7 |
| 20260506175835 | 48 | 117 | 5.0 | 7.0 | 0.00 | 0.00 | 0.00 | 70 | 1018.5 |
| 20260506175332 | 48 | 149 | 10.0 | 14.0 | 0.00 | 0.00 | 0.00 | 71 | 1018.4 |
| 20260506174830 | 48 | 3 | 3.0 | 5.0 | 0.00 | 0.00 | 0.00 | 71 | 1018.8 |
| 20260506174327 | 48 | 56 | 2.0 | 5.0 | 0.00 | 0.00 | 0.00 | 70 | 1018.5 |
| 20260506173824 | 48 | 80 | 6.0 | 10.0 | 0.00 | 0.00 | 0.00 | 69 | 1018.7 |
| 20260506173321 | 48 | 63 | 5.0 | 9.0 | 0.00 | 0.00 | 0.00 | 69 | 1018.8 |
| 20260506172818 | 48 | 67 | 5.0 | 7.0 | 0.00 | 0.00 | 0.00 | 70 | 1018.5 |
| 20260506172315 | 47 | 23 | 4.0 | 5.0 | 0.00 | 0.00 | 0.00 | 72 | 1018.7 |
| 20260506171812 | 48 | 72 | 3.0 | 5.0 | 0.00 | 0.00 | 0.00 | 71 | 1018.5 |
| 20260506171309 | 48 | 92 | 6.0 | 9.0 | 0.00 | 0.00 | 0.00 | 72 | 1018.6 |
| 20260506170807 | 47 | 54 | 3.0 | 5.0 | 0.00 | 0.00 | 0.00 | 71 | 1018.5 |
| 20260506170303 | 47 | 129 | 11.0 | 14.0 | 0.00 | 0.00 | 0.00 | 72 | 1018.5 |
| 20260506165802 | 48 | 71 | 9.0 | 12.0 | 0.00 | 0.00 | 0.00 | 70 | 1018.6 |
| 20260506165259 | 47 | 60 | 6.0 | 9.0 | 0.00 | 0.00 | 0.00 | 71 | 1018.4 |
| 20260506164755 | 47 | 40 | 7.0 | 9.0 | 0.00 | 0.00 | 0.00 | 71 | 1018.5 |
| 20260506164252 | 47 | 94 | 6.0 | 7.0 | 0.00 | 0.00 | 0.00 | 70 | 1018.5 |
| 20260506163749 | 47 | 80 | 6.0 | 12.0 | 0.00 | 0.00 | 0.00 | 70 | 1018.4 |
| 20260506163244 | 47 | 78 | 6.0 | 7.0 | 0.00 | 0.00 | 0.00 | 69 | 1018.2 |
| 20260506162740 | 47 | 129 | 7.0 | 9.0 | 0.00 | 0.00 | 0.00 | 70 | 1018.0 |
| 20260506162238 | 46 | 121 | 4.0 | 7.0 | 0.00 | 0.00 | 0.00 | 71 | 1018.4 |
| 20260506161730 | 46 | 101 | 4.0 | 7.0 | 0.00 | 0.00 | 0.00 | 71 | 1018.1 |
| 20260506161227 | 47 | 162 | 7.0 | 10.0 | 0.00 | 0.00 | 0.00 | 70 | 1018.1 |
| 20260506160724 | 47 | 118 | 5.0 | 9.0 | 0.00 | 0.00 | 0.00 | 70 | 1018.0 |
| 20260506160221 | 46 | 115 | 2.0 | 3.0 | 0.00 | 0.00 | 0.00 | 71 | 1017.8 |
| 20260506155719 | 46 | 82 | 3.0 | 3.0 | 0.00 | 0.00 | 0.00 | 71 | 1017.9 |
| 20260506155216 | 46 | 85 | 8.0 | 10.0 | 0.00 | 0.00 | 0.00 | 71 | 1017.9 |
| 20260506153318 | 46 | 114 | 7.0 | 10.0 | 0.00 | 0.00 | 0.00 | 71 | 1017.7 |
| 20260506152815 | 45 | 89 | 7.0 | 10.0 | 0.00 | 0.00 | 0.00 | 72 | 1017.5 |
| 20260506152312 | 45 | 116 | 7.0 | 9.0 | 0.00 | 0.00 | 0.00 | 73 | 1017.6 |
| 20260506151810 | 45 | 146 | 7.0 | 9.0 | 0.00 | 0.00 | 0.00 | 73 | 1017.5 |
| 20260506151307 | 45 | 105 | 9.0 | 10.0 | 0.00 | 0.00 | 0.00 | 73 | 1017.6 |
| 20260506150804 | 46 | 103 | 4.0 | 9.0 | 0.00 | 0.00 | 0.00 | 72 | 1017.6 |
| 20260506150304 | 45 | 123 | 8.0 | 10.0 | 0.00 | 0.00 | 0.00 | 72 | 1017.5 |
| 20260506145758 | 45 | 72 | 0.0 | 2.0 | 0.00 | 0.00 | 0.00 | 73 | 1017.2 |
| 20260506145254 | 44 | 79 | 3.0 | 5.0 | 0.00 | 0.00 | 0.00 | 74 | 1017.0 |
| 20260506144752 | 44 | 113 | 4.0 | 5.0 | 0.00 | 0.00 | 0.00 | 74 | 1017.2 |
| 20260506144248 | 45 | 159 | 5.0 | 5.0 | 0.00 | 0.00 | 0.00 | 74 | 1016.8 |
| 20260506143746 | 44 | 88 | 3.0 | 5.0 | 0.00 | 0.00 | 0.00 | 74 | 1016.8 |
| 20260506143243 | 44 | 117 | 4.0 | 5.0 | 0.00 | 0.00 | 0.00 | 74 | 1016.7 |
| 20260506142742 | 44 | 52 | 9.0 | 21.0 | 0.00 | 0.00 | 0.00 | 74 | 1016.6 |
| 20260506142239 | 44 | 130 | 9.0 | 12.0 | 0.00 | 0.00 | 0.00 | 75 | 1016.6 |
| 20260506141738 | 44 | 131 | 6.0 | 10.0 | 0.00 | 0.00 | 0.00 | 76 | 1016.6 |
| 20260506141235 | 44 | 90 | 9.0 | 10.0 | 0.00 | 0.00 | 0.00 | 75 | 1016.7 |
| 20260506140732 | 44 | 144 | 7.0 | 9.0 | 0.00 | 0.00 | 0.00 | 76 | 1016.6 |
| 20260506140229 | 43 | 87 | 7.0 | 10.0 | 0.00 | 0.00 | 0.00 | 77 | 1016.7 |
| 20260506135726 | 43 | 159 | 11.0 | 17.0 | 0.00 | 0.00 | 0.00 | 77 | 1016.6 |
| 20260506135222 | 43 | 122 | 8.0 | 10.0 | 0.00 | 0.00 | 0.00 | 77 | 1016.6 |
| 20260506134719 | 43 | 83 | 5.0 | 7.0 | 0.00 | 0.00 | 0.00 | 77 | 1017.1 |
| 20260506134215 | 43 | 106 | 6.0 | 9.0 | 0.00 | 0.00 | 0.00 | 77 | 1016.7 |
| 20260506133713 | 44 | 20 | 10.0 | 19.0 | 0.00 | 0.00 | 0.00 | 76 | 1016.6 |
| 20260506133209 | 43 | 110 | 13.0 | 19.0 | 0.00 | 0.00 | 0.00 | 77 | 1016.6 |
| 20260506132707 | 43 | 97 | 9.0 | 14.0 | 0.00 | 0.00 | 0.00 | 77 | 1016.8 |
| 20260506132203 | 43 | 64 | 7.0 | 9.0 | 0.00 | 0.00 | 0.00 | 77 | 1016.8 |
| 20260506131701 | 43 | 143 | 7.0 | 10.0 | 0.00 | 0.00 | 0.00 | 76 | 1017.2 |
| 20260506131157 | 43 | 100 | 2.0 | 3.0 | 0.00 | 0.00 | 0.00 | 76 | 1017.2 |
| 20260506130654 | 43 | 86 | 2.0 | 2.0 | 0.00 | 0.00 | 0.00 | 76 | 1017.4 |
| 20260506130151 | 43 | 97 | 5.0 | 5.0 | 0.00 | 0.00 | 0.00 | 77 | 1017.2 |
| 20260506125649 | 43 | 70 | 9.0 | 10.0 | 0.00 | 0.00 | 0.00 | 76 | 1017.1 |
| 20260506125147 | 43 | 125 | 9.0 | 15.0 | 0.00 | 0.00 | 0.00 | 77 | 1017.4 |
| 20260506124645 | 43 | 133 | 7.0 | 10.0 | 0.00 | 0.00 | 0.00 | 76 | 1017.4 |
| 20260506124142 | 43 | 92 | 2.0 | 2.0 | 0.00 | 0.00 | 0.00 | 76 | 1017.2 |
| 20260506123639 | 43 | 84 | 8.0 | 12.0 | 0.00 | 0.00 | 0.00 | 76 | 1017.4 |
| 20260506123133 | 43 | 113 | 6.0 | 10.0 | 0.00 | 0.00 | 0.00 | 76 | 1017.1 |
| 20260506122629 | 43 | 151 | 1.0 | 3.0 | 0.00 | 0.00 | 0.00 | 75 | 1017.1 |
| 20260506122127 | 43 | 92 | 6.0 | 10.0 | 0.00 | 0.00 | 0.00 | 75 | 1016.8 |
| 20260506121624 | 42 | 108 | 5.0 | 7.0 | 0.00 | 0.00 | 0.00 | 74 | 1016.9 |
| 20260506121120 | 42 | 140 | 3.0 | 5.0 | 0.00 | 0.00 | 0.00 | 75 | 1016.6 |
| 20260506120618 | 42 | 113 | 5.0 | 5.0 | 0.00 | 0.00 | 0.00 | 75 | 1016.6 |
| 20260506120115 | 42 | 79 | 8.0 | 10.0 | 0.00 | 0.00 | 0.00 | 75 | 1016.1 |
| 20260506115614 | 42 | 127 | 10.0 | 12.0 | 0.00 | 0.00 | 0.00 | 75 | 1016.2 |
| 20260506115112 | 42 | 113 | 8.0 | 10.0 | 0.00 | 0.00 | 0.00 | 75 | 1016.5 |
| 20260506114609 | 42 | 111 | 5.0 | 7.0 | 0.00 | 0.00 | 0.00 | 74 | 1016.5 |
| 20260506114107 | 42 | 97 | 7.0 | 12.0 | 0.00 | 0.00 | 0.00 | 74 | 1016.5 |
| 20260506113604 | 42 | 115 | 8.0 | 10.0 | 0.00 | 0.00 | 0.00 | 74 | 1016.0 |
| 20260506113102 | 42 | 106 | 3.0 | 3.0 | 0.00 | 0.00 | 0.00 | 74 | 1016.1 |
| 20260506112558 | 42 | 92 | 4.0 | 7.0 | 0.00 | 0.00 | 0.00 | 74 | 1016.2 |
| 20260506112056 | 42 | 147 | 7.0 | 10.0 | 0.00 | 0.00 | 0.00 | 74 | 1016.1 |
| 20260506111553 | 42 | 121 | 9.0 | 15.0 | 0.00 | 0.00 | 0.00 | 74 | 1016.0 |
| 20260506111050 | 42 | 136 | 5.0 | 9.0 | 0.00 | 0.00 | 0.00 | 74 | 1016.5 |
| 20260506110548 | 42 | 117 | 6.0 | 9.0 | 0.00 | 0.00 | 0.00 | 73 | 1016.4 |
| 20260506110045 | 42 | 112 | 7.0 | 12.0 | 0.00 | 0.00 | 0.00 | 74 | 1016.4 |
| 20260506105541 | 42 | 71 | 10.0 | 15.0 | 0.00 | 0.00 | 0.00 | 73 | 1016.7 |
| 20260506105039 | 43 | 99 | 10.0 | 15.0 | 0.00 | 0.00 | 0.00 | 73 | 1016.5 |
| 20260506104536 | 42 | 93 | 6.0 | 10.0 | 0.00 | 0.00 | 0.00 | 73 | 1016.4 |